TimeCDT,TemperatureF,Dew PointF,Humidity,Sea Level PressureIn,VisibilityMPH,Wind Direction,Wind SpeedMPH,Gust SpeedMPH,PrecipitationIn,Events,Conditions,WindDirDegrees,DateUTC
12:55 AM,62.8,62.6,99,29.97,10.0,Calm,Calm,-,N/A,,Clear,0,2011-10-27 05:55:00
1:55 AM,68.9,59.4,72,29.97,10.0,South,8.1,-,N/A,,Clear,190,2011-10-27 06:55:00
2:55 AM,68.7,56.5,65,29.96,10.0,SSW,8.1,-,N/A,,Clear,200,2011-10-27 07:55:00
3:55 AM,63.5,59.9,88,29.94,10.0,Calm,Calm,-,N/A,,Clear,0,2011-10-27 08:55:00
4:55 AM,60.6,59.2,95,29.93,10.0,NE,3.5,-,N/A,,Clear,40,2011-10-27 09:55:00
5:55 AM,59.4,59.2,99,29.94,10.0,Calm,Calm,-,N/A,,Clear,0,2011-10-27 10:55:00
6:55 AM,59.0,59.0,100,29.94,10.0,Calm,Calm,-,N/A,,Clear,0,2011-10-27 11:55:00
7:55 AM,58.3,57.9,99,29.94,10.0,NE,3.5,-,N/A,,Clear,50,2011-10-27 12:55:00
8:55 AM,66.6,60.1,80,29.95,10.0,Calm,Calm,-,N/A,,Clear,0,2011-10-27 13:55:00
9:48 AM,75.2,57.2,53,29.96,-9999.0,Calm,Calm,-,N/A,,Clear,0,2011-10-27 14:48:00
9:49 AM,75.2,57.2,53,29.96,-9999.0,Calm,Calm,-,N/A,,Clear,0,2011-10-27 14:49:00
9:50 AM,75.2,57.2,53,29.96,-9999.0,Calm,Calm,-,N/A,,Clear,0,2011-10-27 14:50:00
9:55 AM,77.4,53.8,44,29.96,10.0,South,2.3,-,N/A,,Clear,190,2011-10-27 14:55:00
10:55 AM,78.1,55.0,45,29.96,10.0,Calm,Calm,-,N/A,,Clear,0,2011-10-27 15:55:00
11:55 AM,78.8,57.2,47,29.94,10.0,South,3.5,-,N/A,,Partly Cloudy,180,2011-10-27 16:55:00
12:55 PM,78.3,55.9,46,29.93,10.0,South,9.2,-,N/A,,Clear,190,2011-10-27 17:55:00
1:55 PM,78.3,57.7,49,29.91,10.0,South,9.2,-,N/A,,Partly Cloudy,190,2011-10-27 18:55:00
2:55 PM,78.6,56.7,47,29.91,10.0,SSW,8.1,-,N/A,,Clear,200,2011-10-27 19:55:00
3:55 PM,77.5,57.7,50,29.89,10.0,South,10.4,-,N/A,,Clear,180,2011-10-27 20:55:00
4:55 PM,75.9,60.3,58,29.89,10.0,South,6.9,-,N/A,,Clear,190,2011-10-27 21:55:00
5:55 PM,73.8,61.5,65,29.90,10.0,South,8.1,-,N/A,,Partly Cloudy,190,2011-10-27 22:55:00
6:55 PM,72.1,64.4,77,29.91,10.0,South,4.6,-,N/A,,Clear,170,2011-10-27 23:55:00
7:55 PM,71.8,64.0,77,29.93,10.0,South,5.8,-,N/A,,Clear,180,2011-10-28 00:55:00
8:55 PM,71.1,66.0,84,29.93,10.0,South,8.1,-,N/A,,Clear,190,2011-10-28 01:55:00
9:55 PM,71.1,66.0,84,29.94,10.0,South,4.6,-,N/A,,Clear,190,2011-10-28 02:55:00
10:55 PM,70.0,65.5,86,29.93,10.0,South,4.6,-,N/A,,Clear,180,2011-10-28 03:55:00
11:55 PM,68.5,65.3,89,29.92,10.0,South,3.5,-,N/A,,Clear,190,2011-10-28 04:55:00